createdAt,value
2019-06-26T00:00:51.661Z,75.07
2019-06-26T00:04:53.871Z,75.43
2019-06-26T00:08:56.096Z,75.59
2019-06-26T00:12:58.322Z,75.15
2019-06-26T00:17:00.542Z,74.08
2019-06-26T00:21:02.735Z,74.56
2019-06-26T00:25:04.959Z,76.23
2019-06-26T00:29:07.214Z,74.89
2019-06-26T00:33:09.425Z,75.58
2019-06-26T00:37:11.643Z,76.20
2019-06-26T00:41:13.859Z,75.46
2019-06-26T00:45:16.067Z,75.54
2019-06-26T00:49:18.293Z,75.39
2019-06-26T00:53:20.527Z,75.66
2019-06-26T00:57:22.752Z,75.94
2019-06-26T01:01:24.964Z,75.98
2019-06-26T01:05:27.192Z,75.90
2019-06-26T01:09:29.406Z,75.83
2019-06-26T01:13:31.638Z,75.80
2019-06-26T01:17:33.912Z,75.72
2019-06-26T01:21:36.122Z,75.80
2019-06-26T01:25:38.330Z,75.76
2019-06-26T01:29:40.546Z,75.87
2019-06-26T01:33:42.772Z,75.83
2019-06-26T01:37:44.988Z,75.82
2019-06-26T01:41:47.201Z,76.10
2019-06-26T01:45:49.438Z,76.32
2019-06-26T01:49:51.657Z,76.03
2019-06-26T01:53:53.895Z,75.85
2019-06-26T01:57:56.096Z,76.13
2019-06-26T02:01:58.320Z,76.72
2019-06-26T02:06:00.561Z,76.84
2019-06-26T02:10:02.771Z,76.21
2019-06-26T02:14:04.995Z,76.15
2019-06-26T02:18:08.789Z,76.35
2019-06-26T02:22:11.029Z,76.53
2019-06-26T02:26:13.322Z,76.21
2019-06-26T02:30:15.465Z,76.17
2019-06-26T02:34:17.684Z,76.28
2019-06-26T02:38:19.904Z,75.82
2019-06-26T02:42:22.114Z,76.32
2019-06-26T02:46:24.344Z,76.08
2019-06-26T02:50:26.543Z,76.32
2019-06-26T02:54:28.764Z,76.28
2019-06-26T02:58:31.018Z,76.14
2019-06-26T03:02:33.216Z,76.21
2019-06-26T03:06:35.415Z,76.17
2019-06-26T03:10:37.643Z,75.90
2019-06-26T03:14:39.889Z,75.95
2019-06-26T03:18:42.090Z,76.05
2019-06-26T03:22:44.297Z,75.85
2019-06-26T03:26:46.544Z,75.95
2019-06-26T03:30:48.751Z,76.03
2019-06-26T03:34:50.972Z,76.29
2019-06-26T03:38:53.213Z,76.22
2019-06-26T03:42:55.428Z,76.36
2019-06-26T03:46:57.674Z,76.31
2019-06-26T03:50:59.926Z,75.78
2019-06-26T03:55:02.142Z,75.96
2019-06-26T03:59:04.365Z,76.27
2019-06-26T04:03:06.616Z,75.63
2019-06-26T04:07:08.832Z,75.74
2019-06-26T04:11:11.051Z,75.71
2019-06-26T04:15:13.239Z,75.41
2019-06-26T04:19:15.478Z,76.00
2019-06-26T04:23:17.691Z,75.81
2019-06-26T04:27:19.913Z,76.00
2019-06-26T04:31:22.124Z,76.30
2019-06-26T04:35:24.335Z,76.25
2019-06-26T04:39:26.540Z,76.32
2019-06-26T04:43:28.790Z,76.73
2019-06-26T04:47:31.011Z,76.90
2019-06-26T04:51:33.229Z,76.67
2019-06-26T04:55:35.461Z,77.08
2019-06-26T05:04:02.413Z,73.39
2019-06-26T05:08:04.658Z,73.11
2019-06-26T05:12:06.881Z,72.81
2019-06-26T05:16:15.068Z,72.67
2019-06-26T05:20:13.031Z,72.39
2019-06-26T05:24:15.198Z,72.26
2019-06-26T05:28:17.384Z,72.28
2019-06-26T05:32:19.578Z,72.15
2019-06-26T05:36:21.757Z,71.95
2019-06-26T05:40:23.958Z,71.82
2019-06-26T05:44:26.148Z,71.70
2019-06-26T05:48:28.345Z,71.58
2019-06-26T05:52:30.460Z,71.44
2019-06-26T05:56:32.679Z,71.37
2019-06-26T06:00:34.847Z,71.28
2019-06-26T06:04:37.029Z,71.21
2019-06-26T06:08:39.208Z,71.06
2019-06-26T06:12:41.351Z,71.05
2019-06-26T06:16:47.780Z,70.82
2019-06-26T06:20:47.389Z,70.78
2019-06-26T06:24:49.580Z,70.70
2019-06-26T06:28:51.862Z,70.55
2019-06-26T06:32:53.994Z,70.53
2019-06-26T06:36:56.188Z,70.43
2019-06-26T06:40:58.344Z,70.31
2019-06-26T06:45:00.537Z,70.19
2019-06-26T06:49:02.723Z,70.12
2019-06-26T06:53:04.869Z,70.06
2019-06-26T06:57:07.059Z,69.86
2019-06-26T07:01:09.253Z,69.81
2019-06-26T07:05:11.469Z,70.77
2019-06-26T07:09:13.636Z,71.30
2019-06-26T07:13:15.840Z,71.77
2019-06-26T07:17:21.091Z,71.98
2019-06-26T07:21:21.869Z,72.06
2019-06-26T07:25:24.072Z,72.05
2019-06-26T07:29:26.262Z,71.99
2019-06-26T07:33:28.498Z,70.54
2019-06-26T07:37:30.704Z,70.87
2019-06-26T07:41:32.877Z,71.62
2019-06-26T07:45:35.102Z,72.08
2019-06-26T07:49:37.304Z,72.38
2019-06-26T07:53:39.506Z,72.48
2019-06-26T07:57:41.727Z,72.31
2019-06-26T08:01:43.936Z,72.67
2019-06-26T08:05:46.114Z,73.10
2019-06-26T08:09:48.326Z,73.04
2019-06-26T08:13:50.551Z,73.13
2019-06-26T08:18:00.425Z,72.38
2019-06-26T08:21:56.667Z,73.45
2019-06-26T08:25:58.864Z,73.31
2019-06-26T08:30:01.260Z,73.02
2019-06-26T08:34:03.524Z,72.90
2019-06-26T08:38:11.278Z,72.67
2019-06-26T08:42:09.619Z,72.00
2019-06-26T08:46:11.854Z,71.25
2019-06-26T08:50:14.054Z,68.48
2019-06-26T08:54:16.273Z,68.51
2019-06-26T08:58:18.493Z,67.73
2019-06-26T09:02:20.775Z,68.45
2019-06-26T09:06:23.002Z,68.82
2019-06-26T09:10:25.213Z,68.23
2019-06-26T09:14:27.431Z,68.01
2019-06-26T09:18:35.528Z,68.37
2019-06-26T09:22:33.533Z,66.60
2019-06-26T09:26:35.830Z,66.45
2019-06-26T09:30:38.091Z,67.17
2019-06-26T09:34:40.288Z,66.82
2019-06-26T09:38:42.563Z,66.78
2019-06-26T09:42:44.854Z,66.41
2019-06-26T09:46:47.070Z,66.31
2019-06-26T09:50:49.362Z,66.65
2019-06-26T09:54:51.679Z,67.06
2019-06-26T15:44:16.094Z,61.44
2019-06-26T15:48:18.317Z,59.77
2019-06-26T15:52:20.536Z,57.81
2019-06-26T15:56:22.760Z,58.76
2019-06-26T16:00:25.004Z,57.23
2019-06-26T16:04:27.244Z,58.27
2019-06-26T16:08:29.470Z,58.63
2019-06-26T16:12:31.683Z,57.44
2019-06-26T16:16:35.440Z,55.78
2019-06-26T16:20:37.668Z,58.19
2019-06-26T16:24:39.891Z,56.11
2019-06-26T16:28:42.110Z,56.52
2019-06-26T16:32:44.331Z,55.41
2019-06-26T16:36:46.577Z,54.99
2019-06-26T16:40:48.837Z,55.35
2019-06-26T16:44:51.063Z,56.65
2019-06-26T16:48:53.280Z,55.12
2019-06-26T16:52:55.616Z,56.17
2019-06-26T16:56:57.909Z,56.49
2019-06-26T17:01:00.160Z,57.03
2019-06-26T17:05:02.376Z,55.85
2019-06-26T17:09:04.793Z,54.94
2019-06-26T17:13:07.022Z,56.63
2019-06-26T17:17:09.267Z,55.87
2019-06-26T17:21:11.493Z,55.29
2019-06-26T17:25:13.737Z,55.94
2019-06-26T17:29:15.966Z,55.09
2019-06-26T17:33:18.186Z,55.88
2019-06-26T17:37:20.409Z,56.75
2019-06-26T17:41:22.674Z,55.65
2019-06-26T17:45:24.880Z,56.46
2019-06-26T17:49:27.116Z,55.82
2019-06-26T17:53:29.405Z,55.28
2019-06-26T17:57:31.653Z,54.93
2019-06-26T18:01:33.963Z,55.69
2019-06-26T18:05:36.205Z,55.66
2019-06-26T18:09:38.426Z,55.24
2019-06-26T18:13:40.669Z,55.98
2019-06-26T18:17:42.929Z,55.90
2019-06-26T18:21:45.167Z,55.93
2019-06-26T18:25:53.750Z,55.00
2019-06-26T18:29:51.280Z,56.05
2019-06-26T18:33:53.495Z,55.64
2019-06-26T18:37:55.735Z,54.86
2019-06-26T18:41:57.983Z,54.91
2019-06-26T18:46:00.260Z,55.04
2019-06-26T18:50:02.505Z,54.06
2019-06-26T18:54:04.803Z,53.79
2019-06-26T18:58:07.175Z,53.68
2019-06-26T19:02:09.527Z,53.37
2019-06-26T19:06:11.855Z,53.88
2019-06-26T19:10:14.027Z,53.84
2019-06-26T19:14:16.344Z,53.73
2019-06-26T19:18:19.617Z,53.50
2019-06-26T19:22:21.869Z,53.79
2019-06-26T19:26:24.089Z,53.68
2019-06-26T19:30:26.315Z,53.96
2019-06-26T19:34:28.567Z,53.95
2019-06-26T19:38:30.812Z,54.16
2019-06-26T19:42:33.037Z,53.61
2019-06-26T19:46:35.280Z,53.39
2019-06-26T19:50:37.505Z,53.42
2019-06-26T19:54:39.727Z,53.18
2019-06-26T19:58:41.948Z,52.30
2019-06-26T20:02:44.189Z,53.50
2019-06-26T20:06:46.467Z,53.04
2019-06-26T20:10:48.647Z,52.82
2019-06-26T20:14:50.892Z,52.38
2019-06-26T20:18:53.113Z,52.59
2019-06-26T20:22:55.344Z,52.86
2019-06-26T20:26:57.601Z,52.42
2019-06-26T20:30:59.846Z,52.47
2019-06-26T20:35:02.155Z,51.84
2019-06-26T20:39:04.904Z,52.13
2019-06-26T20:43:09.357Z,52.52
2019-06-26T20:47:11.668Z,52.74
2019-06-26T20:51:13.899Z,52.38
2019-06-26T20:55:16.151Z,52.80
2019-06-26T20:59:18.399Z,52.56
2019-06-26T21:03:21.421Z,52.71
2019-06-26T21:07:23.744Z,52.76
2019-06-26T21:11:25.981Z,52.85
2019-06-26T21:15:28.345Z,52.95
2019-06-26T21:19:30.618Z,53.17
2019-06-26T21:23:32.845Z,53.35
2019-06-26T21:27:35.087Z,53.56
2019-06-26T21:31:37.349Z,54.15
2019-06-26T21:35:39.586Z,54.48
2019-06-26T21:39:41.799Z,54.25
2019-06-26T21:43:44.041Z,54.73
2019-06-26T21:47:47.958Z,54.84
2019-06-26T21:51:50.172Z,54.72
2019-06-26T21:55:52.386Z,55.11
2019-06-26T21:59:54.606Z,54.83
2019-06-26T22:03:56.825Z,55.29
2019-06-26T22:07:59.071Z,55.10
2019-06-26T22:12:01.488Z,55.33
2019-06-26T22:16:03.704Z,55.64
2019-06-26T22:20:09.768Z,56.03
2019-06-26T22:24:09.846Z,56.05
2019-06-26T22:28:12.087Z,55.94
2019-06-26T22:32:14.294Z,55.54
2019-06-26T22:36:16.513Z,56.32
2019-06-26T22:40:18.731Z,56.30
2019-06-26T22:44:20.964Z,56.53
2019-06-26T22:48:23.148Z,55.97
2019-06-26T22:52:25.375Z,56.23
2019-06-26T22:56:29.413Z,55.86
2019-06-26T23:00:31.625Z,55.99
2019-06-26T23:04:33.851Z,56.67
2019-06-26T23:08:36.061Z,56.08
2019-06-26T23:12:38.275Z,56.24
2019-06-26T23:16:40.565Z,56.06
2019-06-26T23:20:42.723Z,56.39
2019-06-26T23:24:44.997Z,56.88
2019-06-26T23:28:47.200Z,56.86
2019-06-26T23:32:49.422Z,56.84
2019-06-26T23:36:51.776Z,56.69
2019-06-26T23:40:54.024Z,57.12
2019-06-26T23:44:56.236Z,56.72
2019-06-26T23:48:58.462Z,56.54
2019-06-26T23:53:00.881Z,56.58
2019-06-26T23:57:03.097Z,56.62
